Fairlawn, Virginia
Current Conditions -  °F | °C
As of 3:15 PM on Wednesday 28 Jan 2015 (Local Time) from KPSK Reporting Station
Clear Clear  
Wind Chill:   Ceiling: Unl
Heat Index:   Visibility: 10mi
Dew Point: -11°   Wind: 3mph
Humidity: 34%   Direction: 350°N
Pressure: 30.2"   Gusts: NA
Location:  37.1746°N, 80.6425°W
Report Text: KPSK 282015Z AUTO 35003KT 10SM CLR 04/M11 A3020 RMK AO2 T00351112
Loading
Personal Weather Stations






























Interactive Weather Map New forecast layout! Learn more

10-Day Weather Forecast

Advertisements
Track Severe Weather on mobile